Fairmount City, Pennsylvania
Current Conditions -  °F | °C
As of 6:53 PM on Friday 24 Oct 2014 (Local Time) from KDUJ Reporting Station
Clear Clear  
Wind Chill: 52°   Ceiling: Unl
Heat Index: 52°   Visibility: 10mi
Dew Point: 35°   Wind: 6mph
Humidity: 53%   Direction: 280°W
Pressure: 29.96"   Gusts: NA
Location:  41.01°N, 79.32°W
Report Text: KDUJ 242253Z AUTO 28005KT 10SM CLR 11/02 A2996 RMK AO2 SLP150 T01110017
Loading
Personal Weather Stations






























Interactive Weather Map New forecast layout! Learn more

10-Day Weather Forecast

Advertisements
Track Severe Weather on mobile